createdAt,value
2023-12-22T00:04:13.377Z,11.88
2023-12-22T00:07:14.959Z,13.27
2023-12-22T00:09:54.403Z,16.55
2023-12-22T00:13:20.167Z,18.92
2023-12-22T00:16:55.788Z,9.95
2023-12-22T00:22:13.843Z,8.73
2023-12-22T00:24:41.691Z,10.18
2023-12-22T00:27:09.008Z,6.57
2023-12-22T00:33:40.732Z,19.55
2023-12-22T00:40:49.776Z,17.15
2023-12-22T00:46:47.414Z,15.43
2023-12-22T00:50:41.424Z,14.13
2023-12-22T00:54:10.628Z,13.55
2023-12-22T00:57:10.740Z,7.82
2023-12-22T00:59:39.556Z,13.77
2023-12-22T01:02:06.913Z,12.50
2023-12-22T01:04:33.995Z,10.15
2023-12-22T01:07:01.043Z,11.43
2023-12-22T01:09:28.135Z,8.93
2023-12-22T01:11:57.285Z,13.32
2023-12-22T01:14:24.422Z,9.73
2023-12-22T01:16:52.246Z,8.98
2023-12-22T01:19:32.372Z,11.98
2023-12-22T01:22:01.278Z,6.45
2023-12-22T01:24:28.399Z,13.45
2023-12-22T01:26:55.644Z,6.93
2023-12-22T01:29:22.887Z,15.88
2023-12-22T01:31:50.222Z,6.85
2023-12-22T01:34:17.603Z,4.30
2023-12-22T01:36:52.251Z,3.75
2023-12-22T01:39:26.401Z,3.72
2023-12-22T01:50:10.615Z,7.82
2023-12-22T02:00:34.822Z,5.38
2023-12-22T02:03:02.787Z,0.22
2023-12-22T02:08:55.909Z,2.80
2023-12-22T02:11:42.427Z,1.95
2023-12-22T02:19:11.046Z,1.35
2023-12-22T02:22:08.534Z,0.52
2023-12-22T02:29:34.912Z,1.50
2023-12-22T02:32:36.042Z,2.65
2023-12-22T02:35:18.515Z,1.08
2023-12-22T02:37:48.042Z,3.30
2023-12-22T02:40:18.763Z,3.15
2023-12-22T02:42:47.665Z,8.30
2023-12-22T02:45:38.949Z,11.63
2023-12-22T02:48:12.639Z,2.05
2023-12-22T02:50:47.669Z,4.30
2023-12-22T02:53:20.161Z,8.25
2023-12-22T02:55:47.821Z,4.43
2023-12-22T02:58:14.944Z,8.40
2023-12-22T03:00:42.124Z,6.03
2023-12-22T03:03:09.334Z,3.28
2023-12-22T03:05:44.584Z,6.57
2023-12-22T03:08:18.286Z,9.65
2023-12-22T03:17:09.803Z,5.30
2023-12-22T03:32:44.470Z,3.08
2023-12-22T03:35:12.507Z,6.10
2023-12-22T03:37:48.996Z,4.05
2023-12-22T03:40:16.584Z,7.50
2023-12-22T03:46:57.278Z,1.20
2023-12-22T03:49:24.557Z,5.78
2023-12-22T03:51:51.711Z,4.05
2023-12-22T03:54:19.165Z,5.97
2023-12-22T03:56:51.605Z,0.57
2023-12-22T03:59:19.915Z,2.45
2023-12-22T04:01:53.674Z,0.45
2023-12-22T04:04:24.061Z,2.47
2023-12-22T04:06:55.776Z,4.28
2023-12-22T04:09:29.273Z,3.30
2023-12-22T04:15:24.039Z,1.85
2023-12-22T04:17:51.710Z,0.00
2023-12-22T04:20:20.819Z,4.05
2023-12-22T04:22:49.808Z,0.00
2023-12-22T04:44:44.990Z,0.95
2023-12-22T04:47:13.823Z,3.65
2023-12-22T04:49:42.973Z,0.35
2023-12-22T04:52:23.219Z,1.17
2023-12-22T04:54:50.461Z,0.15
2023-12-22T05:05:18.960Z,1.77
2023-12-22T05:07:47.281Z,2.00
2023-12-22T05:10:16.069Z,0.17
2023-12-22T05:12:43.170Z,0.10
2023-12-22T05:19:03.078Z,2.83
2023-12-22T05:21:34.446Z,2.15
2023-12-22T05:29:09.888Z,1.65
2023-12-22T05:32:13.552Z,8.88
2023-12-22T05:42:12.077Z,1.55
2023-12-22T05:49:58.610Z,0.00
2023-12-22T05:52:48.735Z,0.20
2023-12-22T05:55:16.179Z,1.48
2023-12-22T05:58:13.940Z,0.17
2023-12-22T06:01:35.505Z,0.10
2023-12-22T06:04:03.794Z,1.05
2023-12-22T06:23:18.482Z,1.83
2023-12-22T06:29:54.857Z,3.00
2023-12-22T06:33:16.077Z,0.00
2023-12-22T06:36:04.612Z,3.40
2023-12-22T06:42:12.216Z,1.52
2023-12-22T06:44:45.150Z,0.38
2023-12-22T06:47:12.438Z,0.05
2023-12-22T06:49:40.956Z,1.00
2023-12-22T06:52:12.083Z,2.58
2023-12-22T06:54:39.935Z,2.40
2023-12-22T06:57:37.162Z,0.80
2023-12-22T07:00:11.398Z,0.20
2023-12-22T07:02:38.837Z,1.08
2023-12-22T07:05:52.206Z,0.88
2023-12-22T07:08:19.780Z,0.90
2023-12-22T07:10:48.160Z,2.40
2023-12-22T07:16:40.706Z,2.45
2023-12-22T07:19:28.205Z,0.32
2023-12-22T07:21:55.659Z,0.00
2023-12-22T07:24:22.960Z,0.30
2023-12-22T07:29:52.959Z,0.00
2023-12-22T07:32:20.229Z,0.88
2023-12-22T07:34:47.755Z,0.05
2023-12-22T07:37:23.444Z,0.00
2023-12-22T07:39:56.342Z,1.00
2023-12-22T07:42:23.865Z,0.20
2023-12-22T07:44:50.897Z,2.53
2023-12-22T07:47:18.131Z,2.00
2023-12-22T07:49:48.053Z,0.80
2023-12-22T07:53:21.332Z,0.55
2023-12-22T07:56:18.167Z,1.25
2023-12-22T07:58:49.162Z,0.20
2023-12-22T08:01:18.318Z,1.08
2023-12-22T08:03:46.449Z,0.10
2023-12-22T08:06:15.415Z,0.90
2023-12-22T08:08:43.205Z,0.68
2023-12-22T08:11:10.639Z,0.88
2023-12-22T08:13:40.437Z,0.85
2023-12-22T08:16:12.542Z,0.10
2023-12-22T08:29:57.746Z,0.75
2023-12-22T08:32:25.326Z,1.35
2023-12-22T08:34:56.109Z,1.65
2023-12-22T08:44:40.828Z,2.13
2023-12-22T09:09:31.607Z,2.95
2023-12-22T09:12:12.135Z,4.13
2023-12-22T09:14:53.787Z,0.00
2023-12-22T09:17:31.957Z,0.45
2023-12-22T09:20:00.642Z,0.85
2023-12-22T09:22:28.041Z,0.88
2023-12-22T09:24:56.661Z,1.65
2023-12-22T09:27:24.262Z,4.38
2023-12-22T09:29:51.470Z,2.22
2023-12-22T09:32:18.497Z,1.98
2023-12-22T09:34:45.623Z,0.00
2023-12-22T09:37:12.941Z,2.40
2023-12-22T09:39:40.460Z,1.65
2023-12-22T09:42:07.734Z,0.13
2023-12-22T09:44:35.147Z,1.48
2023-12-22T09:47:04.893Z,0.80
2023-12-22T09:49:32.503Z,1.55
2023-12-22T09:51:59.626Z,4.22
2023-12-22T09:54:27.693Z,1.35
2023-12-22T09:56:55.136Z,2.25
2023-12-22T09:59:22.306Z,0.10
2023-12-22T10:01:49.447Z,0.00
2023-12-22T10:04:16.702Z,1.45
2023-12-22T10:06:43.988Z,1.02
2023-12-22T10:09:12.618Z,4.88
2023-12-22T10:11:40.045Z,3.20
2023-12-22T10:14:07.503Z,3.53
2023-12-22T10:16:34.616Z,0.90
2023-12-22T10:19:02.066Z,0.70
2023-12-22T10:21:32.962Z,1.35
2023-12-22T10:24:00.769Z,0.22
2023-12-22T10:26:27.835Z,1.50
2023-12-22T10:28:55.124Z,2.40
2023-12-22T10:31:22.168Z,1.85
2023-12-22T10:33:49.578Z,3.72
2023-12-22T10:36:16.747Z,3.40
2023-12-22T10:38:44.532Z,1.65
2023-12-22T10:41:11.758Z,2.85
2023-12-22T10:43:42.442Z,11.68
2023-12-22T10:46:12.137Z,5.18
2023-12-22T10:48:39.731Z,3.75
2023-12-22T10:51:11.094Z,1.25
2023-12-22T10:53:41.388Z,1.27
2023-12-22T10:56:08.544Z,5.88
2023-12-22T10:58:37.145Z,2.10
2023-12-22T11:01:04.854Z,5.68
2023-12-22T11:03:31.940Z,3.85
2023-12-22T11:05:59.461Z,4.07
2023-12-22T11:08:27.234Z,2.70
2023-12-22T11:10:56.956Z,1.33
2023-12-22T11:13:24.837Z,0.73
2023-12-22T11:15:52.239Z,2.78
2023-12-22T11:18:19.681Z,2.85
2023-12-22T11:20:47.657Z,0.75
2023-12-22T11:23:14.710Z,2.05
2023-12-22T11:25:42.060Z,1.10
2023-12-22T11:28:09.051Z,1.98
2023-12-22T11:30:36.484Z,1.85
2023-12-22T11:33:04.011Z,1.85
2023-12-22T11:35:33.438Z,2.33
2023-12-22T11:38:03.614Z,3.50
2023-12-22T11:40:30.784Z,2.08
2023-12-22T11:42:58.930Z,2.83
2023-12-22T11:45:26.064Z,1.30
2023-12-22T11:47:56.196Z,3.70
2023-12-22T11:50:32.852Z,3.72
2023-12-22T11:53:23.983Z,5.90
2023-12-22T11:56:01.786Z,1.98
2023-12-22T11:58:52.751Z,0.43
2023-12-22T12:01:21.553Z,1.50
2023-12-22T12:04:04.935Z,1.10
2023-12-22T12:06:34.180Z,2.20
2023-12-22T12:09:02.718Z,2.08
2023-12-22T12:11:52.711Z,1.42
2023-12-22T12:14:42.428Z,0.38
2023-12-22T12:17:10.253Z,3.13
2023-12-22T12:19:39.116Z,0.20
2023-12-22T12:22:06.579Z,4.22
2023-12-22T12:24:33.883Z,0.98
2023-12-22T12:27:00.990Z,4.60
2023-12-22T12:29:29.744Z,1.40
2023-12-22T12:32:04.888Z,1.13
2023-12-22T12:34:32.288Z,2.17
2023-12-22T12:37:00.542Z,0.88
2023-12-22T12:39:30.767Z,3.00
2023-12-22T12:41:57.839Z,0.90
2023-12-22T12:44:25.430Z,1.98
2023-12-22T12:46:52.507Z,0.80
2023-12-22T12:49:20.329Z,4.32
2023-12-22T12:51:49.886Z,1.15
2023-12-22T12:54:17.075Z,3.83
2023-12-22T12:56:45.246Z,2.63
2023-12-22T12:59:13.437Z,2.80
2023-12-22T13:01:47.882Z,2.20
2023-12-22T13:04:15.402Z,2.25
2023-12-22T13:06:49.372Z,6.25
2023-12-22T13:09:17.073Z,2.83
2023-12-22T13:11:45.340Z,2.95
2023-12-22T13:14:12.468Z,2.85
2023-12-22T13:16:40.593Z,3.22
2023-12-22T13:19:07.790Z,0.45
2023-12-22T13:21:35.036Z,0.60
2023-12-22T13:24:15.390Z,0.00
2023-12-22T13:26:42.671Z,6.20
2023-12-22T13:29:10.671Z,1.75
2023-12-22T13:31:39.312Z,2.13
2023-12-22T13:34:13.267Z,1.50
2023-12-22T13:36:41.208Z,2.45
2023-12-22T13:39:08.288Z,3.72
2023-12-22T13:41:47.313Z,0.57
2023-12-22T13:44:15.318Z,1.83
2023-12-22T13:46:43.802Z,0.75
2023-12-22T13:49:14.324Z,10.57
2023-12-22T13:51:45.697Z,7.22
2023-12-22T13:54:13.029Z,7.97
2023-12-22T13:56:43.774Z,0.50
2023-12-22T13:59:12.388Z,5.97
2023-12-22T14:01:39.877Z,7.68
2023-12-22T14:04:09.448Z,1.65
2023-12-22T14:06:36.911Z,5.55
2023-12-22T14:09:04.565Z,2.53
2023-12-22T14:11:33.201Z,2.90
2023-12-22T14:14:00.905Z,1.40
2023-12-22T14:16:28.313Z,1.58
2023-12-22T14:18:56.374Z,4.35
2023-12-22T14:21:23.962Z,0.25
2023-12-22T14:23:51.816Z,0.20
2023-12-22T14:26:19.249Z,2.30
2023-12-22T14:28:51.823Z,0.30
2023-12-22T14:31:19.351Z,2.15
2023-12-22T14:33:46.851Z,2.78
2023-12-22T14:36:20.373Z,0.30
2023-12-22T14:38:50.726Z,0.75
2023-12-22T14:41:18.075Z,4.10
2023-12-22T14:43:45.358Z,0.80
2023-12-22T14:46:12.709Z,1.05
2023-12-22T14:48:40.116Z,16.42
2023-12-22T14:51:07.980Z,3.03
2023-12-22T14:53:35.285Z,2.08
2023-12-22T14:56:02.905Z,2.75
2023-12-22T14:58:31.532Z,5.35
2023-12-22T15:00:58.955Z,0.90
2023-12-22T15:03:26.365Z,1.17
2023-12-22T15:05:54.094Z,0.68
2023-12-22T15:08:21.603Z,0.63
2023-12-22T15:10:49.000Z,3.00
2023-12-22T15:13:16.337Z,3.20
2023-12-22T15:15:43.640Z,1.40
2023-12-22T15:18:13.362Z,0.47
2023-12-22T15:20:40.949Z,4.28
2023-12-22T15:23:08.365Z,1.15
2023-12-22T15:25:35.788Z,5.32
2023-12-22T15:28:03.918Z,1.00
2023-12-22T15:30:31.470Z,3.55
2023-12-22T15:35:25.679Z,2.83
2023-12-22T15:37:52.858Z,0.82
2023-12-22T15:40:20.484Z,1.45
2023-12-22T15:42:47.765Z,1.20
2023-12-22T15:45:15.076Z,0.35
2023-12-22T15:47:42.297Z,1.27
2023-12-22T15:50:10.349Z,7.50
2023-12-22T15:52:37.762Z,1.75
2023-12-22T15:55:05.275Z,7.78
2023-12-22T15:57:32.274Z,2.13
2023-12-22T15:59:59.319Z,1.73
2023-12-22T16:02:26.296Z,2.60
2023-12-22T16:04:53.894Z,1.85
2023-12-22T16:07:20.883Z,4.80
2023-12-22T16:09:47.931Z,2.47
2023-12-22T16:12:15.028Z,2.30
2023-12-22T16:14:42.323Z,4.65
2023-12-22T16:17:09.656Z,3.90
2023-12-22T16:19:39.818Z,3.45
2023-12-22T16:22:06.927Z,8.35
2023-12-22T16:24:34.267Z,0.73
2023-12-22T16:27:01.474Z,1.92
2023-12-22T16:29:28.599Z,5.43
2023-12-22T16:31:55.661Z,1.17
2023-12-22T16:34:22.698Z,0.73
2023-12-22T16:36:49.736Z,2.13
2023-12-22T16:39:16.834Z,1.50
2023-12-22T16:41:44.045Z,5.93
2023-12-22T16:44:11.271Z,0.00
2023-12-22T16:46:38.971Z,1.35
2023-12-22T16:49:07.859Z,1.88
2023-12-22T16:51:34.989Z,1.95
2023-12-22T16:54:03.865Z,6.22
2023-12-22T16:56:31.197Z,0.95
2023-12-22T16:58:58.283Z,3.17
2023-12-22T17:01:38.811Z,4.25
2023-12-22T17:04:08.726Z,1.88
2023-12-22T17:06:36.599Z,2.10
2023-12-22T17:09:05.265Z,0.57
2023-12-22T17:11:32.860Z,2.45
2023-12-22T17:14:00.516Z,1.02
2023-12-22T17:16:27.980Z,1.67
2023-12-22T17:18:56.341Z,0.50
2023-12-22T17:21:25.989Z,1.85
2023-12-22T17:23:54.301Z,4.35
2023-12-22T17:26:22.575Z,4.55
2023-12-22T17:28:50.608Z,1.15
2023-12-22T17:31:18.108Z,0.38
2023-12-22T17:33:45.847Z,1.88
2023-12-22T17:36:14.160Z,2.35
2023-12-22T17:38:41.496Z,0.98
2023-12-22T17:41:08.979Z,5.35
2023-12-22T17:43:36.148Z,1.30
2023-12-22T17:46:03.417Z,5.07
2023-12-22T17:48:31.802Z,5.68
2023-12-22T17:51:00.215Z,2.60
2023-12-22T17:53:27.345Z,2.95
2023-12-22T17:55:54.845Z,2.63
2023-12-22T17:58:22.104Z,2.65
2023-12-22T18:00:49.375Z,1.33
2023-12-22T18:03:16.676Z,1.55
2023-12-22T18:05:43.922Z,1.65
2023-12-22T18:08:12.930Z,2.55
2023-12-22T18:10:41.846Z,2.80
2023-12-22T18:35:40.206Z,4.50
2023-12-22T23:42:50.606Z,3.45
